Pagrindinis puslapis
METAR-TAF:

METAR-TAF

Oro uostai :

Šantou, Kinija

platuma: 23-24N, ilguma: 116-41E, Aukštis: 3 m

Dabartinis oras

Ataskaita buvo paskelbta 1 valandą ir 3 minutes, ne 00:00 UTC
Vėjas 6 kt iš Rytų/Šiaurės Rytų
Temperatūra 17°C
Drėgmė 100%
Slėgis 1015 hPa
Matomumas: 3500 m
Išsisklaidę debesys ne aukštis 600 ft
Apsiniaukę ne aukštis 2600 ft
rūkana

METAR: ZGOW 310000Z 06003MPS 3500 BR SCT006 OVC026 17/17 Q1015 NOSIG

Laikas: 09:03 (01:03 UTC)

Prognozė

Ataskaita buvo paskelbta 3 valandos ir 55 minutes, ne 21:08 UTC
Prognozė galioja nuo 31 metu 00 UTC su 31 metu 24 UTC
Vėjas 6 kt iš Rytų/Pietryčių
Matomumas: 1600 m
Išsisklaidę debesys ne aukštis 300 ft
Su prošvaistėmis ne aukštis 2000 ft
rūkana
Tapsmas
nuo 31 metu 03 UTC su 31 metu 04 UTC
Matomumas: 3200 m
Laikinai
nuo 31 metu 20 UTC su 31 metu 24 UTC
Matomumas: 1800 m

TAF: ZGOW 302108Z 3100/3124 12003MPS 1600 BR SCT003 BKN020 TX23/3106Z TN17/3122Z BECMG 3103/3104 3200 TEMPO 3120/3124 1800

Orai ataskaitas ir orų prognozės (METAR, TAF).

turimą stotys yra geltonos ir raudonos taškus žemėlapyje.

Perkelti pele per norėdami pamatyti stoties vardą.

Tada spustelėkite, norėdami matyti oro stebėjimo ir prognozės.

Norėdami pakeisti žemėlapį: spustelėkite ant žalios mygtukų su juodo kryžiaus žemyn,; žalią mygtuką su brūkšneliu, jei norite nutolinti; arba žalių rodyklių gretimoms žemėlapius.


METAR-TAF: